sensor_id;sensor_type;location;lat;lon;timestamp;P1;durP1;ratioP1;P2;durP2;ratioP2
69854;SDS011;57146;48.140;16.304;2023-03-14T00:02:23;7.55;;;2.03;;
69854;SDS011;57146;48.140;16.304;2023-03-14T00:04:50;8.55;;;2.03;;
69854;SDS011;57146;48.140;16.304;2023-03-14T00:07:24;9.88;;;2.03;;
69854;SDS011;57146;48.140;16.304;2023-03-14T00:09:51;6.78;;;1.95;;
69854;SDS011;57146;48.140;16.304;2023-03-14T00:12:18;7.77;;;1.87;;
69854;SDS011;57146;48.140;16.304;2023-03-14T00:14:48;6.97;;;2.13;;
69854;SDS011;57146;48.140;16.304;2023-03-14T00:17:15;5.90;;;1.88;;
69854;SDS011;57146;48.140;16.304;2023-03-14T00:19:42;7.35;;;1.85;;
69854;SDS011;57146;48.140;16.304;2023-03-14T00:22:09;9.43;;;2.10;;
69854;SDS011;57146;48.140;16.304;2023-03-14T00:25:00;8.83;;;2.10;;
69854;SDS011;57146;48.140;16.304;2023-03-14T00:30:23;6.50;;;2.08;;
69854;SDS011;57146;48.140;16.304;2023-03-14T00:32:51;7.15;;;2.30;;
69854;SDS011;57146;48.140;16.304;2023-03-14T00:35:18;9.10;;;1.90;;
69854;SDS011;57146;48.140;16.304;2023-03-14T00:37:45;7.63;;;2.27;;
69854;SDS011;57146;48.140;16.304;2023-03-14T00:40:12;6.97;;;2.20;;
69854;SDS011;57146;48.140;16.304;2023-03-14T00:42:39;7.70;;;1.90;;
69854;SDS011;57146;48.140;16.304;2023-03-14T00:45:06;6.88;;;2.20;;
69854;SDS011;57146;48.140;16.304;2023-03-14T00:47:35;9.35;;;2.55;;
69854;SDS011;57146;48.140;16.304;2023-03-14T00:50:02;7.80;;;2.03;;
69854;SDS011;57146;48.140;16.304;2023-03-14T00:52:29;6.93;;;1.85;;
69854;SDS011;57146;48.140;16.304;2023-03-14T00:54:59;9.32;;;1.88;;
69854;SDS011;57146;48.140;16.304;2023-03-14T00:57:26;7.65;;;2.10;;
69854;SDS011;57146;48.140;16.304;2023-03-14T00:59:54;6.90;;;1.60;;
69854;SDS011;57146;48.140;16.304;2023-03-14T01:02:21;8.73;;;1.97;;
69854;SDS011;57146;48.140;16.304;2023-03-14T01:04:48;7.47;;;1.85;;
69854;SDS011;57146;48.140;16.304;2023-03-14T01:07:18;9.95;;;2.20;;
69854;SDS011;57146;48.140;16.304;2023-03-14T01:09:45;7.65;;;1.60;;
69854;SDS011;57146;48.140;16.304;2023-03-14T01:12:11;6.68;;;1.67;;
69854;SDS011;57146;48.140;16.304;2023-03-14T01:14:41;8.53;;;1.67;;
69854;SDS011;57146;48.140;16.304;2023-03-14T01:17:08;6.80;;;2.10;;
69854;SDS011;57146;48.140;16.304;2023-03-14T01:19:35;7.15;;;1.70;;
69854;SDS011;57146;48.140;16.304;2023-03-14T01:22:27;6.40;;;1.90;;
69854;SDS011;57146;48.140;16.304;2023-03-14T01:24:56;5.97;;;1.88;;
69854;SDS011;57146;48.140;16.304;2023-03-14T01:27:23;8.37;;;2.33;;
69854;SDS011;57146;48.140;16.304;2023-03-14T01:29:50;8.52;;;1.90;;
69854;SDS011;57146;48.140;16.304;2023-03-14T01:32:17;7.60;;;2.53;;
69854;SDS011;57146;48.140;16.304;2023-03-14T01:34:44;8.18;;;3.40;;
69854;SDS011;57146;48.140;16.304;2023-03-14T01:37:11;9.48;;;2.30;;
69854;SDS011;57146;48.140;16.304;2023-03-14T01:39:39;5.97;;;1.90;;
69854;SDS011;57146;48.140;16.304;2023-03-14T01:42:06;7.10;;;1.95;;
69854;SDS011;57146;48.140;16.304;2023-03-14T01:44:47;7.20;;;2.20;;
69854;SDS011;57146;48.140;16.304;2023-03-14T01:47:24;8.43;;;2.10;;
69854;SDS011;57146;48.140;16.304;2023-03-14T01:52:29;9.10;;;2.17;;
69854;SDS011;57146;48.140;16.304;2023-03-14T01:55:02;7.85;;;2.00;;
69854;SDS011;57146;48.140;16.304;2023-03-14T01:57:40;6.60;;;1.70;;
69854;SDS011;57146;48.140;16.304;2023-03-14T02:00:12;7.38;;;1.95;;
69854;SDS011;57146;48.140;16.304;2023-03-14T02:02:50;5.75;;;1.65;;
69854;SDS011;57146;48.140;16.304;2023-03-14T02:05:26;7.43;;;1.70;;
69854;SDS011;57146;48.140;16.304;2023-03-14T02:08:11;7.47;;;1.65;;
69854;SDS011;57146;48.140;16.304;2023-03-14T02:10:47;7.18;;;1.58;;
69854;SDS011;57146;48.140;16.304;2023-03-14T02:13:20;7.25;;;1.73;;
69854;SDS011;57146;48.140;16.304;2023-03-14T02:16:12;9.20;;;1.52;;
69854;SDS011;57146;48.140;16.304;2023-03-14T02:18:58;8.73;;;1.60;;
69854;SDS011;57146;48.140;16.304;2023-03-14T02:24:28;7.38;;;1.58;;
69854;SDS011;57146;48.140;16.304;2023-03-14T02:27:18;5.85;;;1.58;;
69854;SDS011;57146;48.140;16.304;2023-03-14T02:29:49;6.00;;;1.30;;
69854;SDS011;57146;48.140;16.304;2023-03-14T02:32:21;7.97;;;1.80;;
69854;SDS011;57146;48.140;16.304;2023-03-14T02:34:52;7.15;;;1.70;;
69854;SDS011;57146;48.140;16.304;2023-03-14T02:37:25;6.10;;;1.73;;
69854;SDS011;57146;48.140;16.304;2023-03-14T02:39:59;7.93;;;1.52;;
69854;SDS011;57146;48.140;16.304;2023-03-14T02:42:27;5.40;;;1.60;;
69854;SDS011;57146;48.140;16.304;2023-03-14T02:44:59;6.50;;;1.70;;
69854;SDS011;57146;48.140;16.304;2023-03-14T02:47:44;6.05;;;1.80;;
69854;SDS011;57146;48.140;16.304;2023-03-14T02:50:20;5.45;;;1.50;;
69854;SDS011;57146;48.140;16.304;2023-03-14T02:52:53;7.38;;;1.83;;
69854;SDS011;57146;48.140;16.304;2023-03-14T02:55:21;6.15;;;1.30;;
69854;SDS011;57146;48.140;16.304;2023-03-14T02:57:51;7.03;;;1.60;;
69854;SDS011;57146;48.140;16.304;2023-03-14T03:00:18;6.65;;;1.63;;
69854;SDS011;57146;48.140;16.304;2023-03-14T03:02:46;6.88;;;1.60;;
69854;SDS011;57146;48.140;16.304;2023-03-14T03:05:13;9.18;;;1.90;;
69854;SDS011;57146;48.140;16.304;2023-03-14T03:07:40;7.50;;;1.75;;
69854;SDS011;57146;48.140;16.304;2023-03-14T03:10:08;5.27;;;1.30;;
69854;SDS011;57146;48.140;16.304;2023-03-14T03:12:36;5.65;;;1.35;;
69854;SDS011;57146;48.140;16.304;2023-03-14T03:15:04;7.45;;;1.70;;
69854;SDS011;57146;48.140;16.304;2023-03-14T03:17:34;5.30;;;1.80;;
69854;SDS011;57146;48.140;16.304;2023-03-14T03:20:01;4.18;;;1.10;;
69854;SDS011;57146;48.140;16.304;2023-03-14T03:22:30;8.17;;;1.50;;
69854;SDS011;57146;48.140;16.304;2023-03-14T03:24:57;6.30;;;1.40;;
69854;SDS011;57146;48.140;16.304;2023-03-14T03:27:24;5.97;;;1.35;;
69854;SDS011;57146;48.140;16.304;2023-03-14T03:29:52;8.10;;;1.50;;
69854;SDS011;57146;48.140;16.304;2023-03-14T03:32:25;6.05;;;1.20;;
69854;SDS011;57146;48.140;16.304;2023-03-14T03:34:52;6.43;;;1.43;;
69854;SDS011;57146;48.140;16.304;2023-03-14T03:37:19;6.05;;;1.30;;
69854;SDS011;57146;48.140;16.304;2023-03-14T03:39:46;7.47;;;1.33;;
69854;SDS011;57146;48.140;16.304;2023-03-14T03:42:14;6.18;;;1.05;;
69854;SDS011;57146;48.140;16.304;2023-03-14T03:44:42;6.05;;;1.20;;
69854;SDS011;57146;48.140;16.304;2023-03-14T03:47:09;4.87;;;1.30;;
69854;SDS011;57146;48.140;16.304;2023-03-14T03:49:36;5.43;;;1.15;;
69854;SDS011;57146;48.140;16.304;2023-03-14T03:52:04;5.55;;;1.17;;
69854;SDS011;57146;48.140;16.304;2023-03-14T03:54:31;5.97;;;0.93;;
69854;SDS011;57146;48.140;16.304;2023-03-14T03:56:59;5.97;;;1.20;;
69854;SDS011;57146;48.140;16.304;2023-03-14T03:59:26;4.97;;;1.33;;
69854;SDS011;57146;48.140;16.304;2023-03-14T04:01:53;7.47;;;1.92;;
69854;SDS011;57146;48.140;16.304;2023-03-14T04:04:23;8.45;;;2.10;;
69854;SDS011;57146;48.140;16.304;2023-03-14T04:06:52;10.70;;;2.60;;
69854;SDS011;57146;48.140;16.304;2023-03-14T04:09:19;7.97;;;2.00;;
69854;SDS011;57146;48.140;16.304;2023-03-14T04:11:58;8.67;;;2.07;;
69854;SDS011;57146;48.140;16.304;2023-03-14T04:14:45;5.75;;;1.92;;
69854;SDS011;57146;48.140;16.304;2023-03-14T04:17:20;8.10;;;2.10;;
69854;SDS011;57146;48.140;16.304;2023-03-14T04:19:49;7.35;;;2.10;;
69854;SDS011;57146;48.140;16.304;2023-03-14T04:22:18;5.93;;;1.98;;
69854;SDS011;57146;48.140;16.304;2023-03-14T04:24:49;6.77;;;1.80;;
69854;SDS011;57146;48.140;16.304;2023-03-14T04:27:18;6.88;;;1.60;;
69854;SDS011;57146;48.140;16.304;2023-03-14T04:29:46;10.27;;;1.70;;
69854;SDS011;57146;48.140;16.304;2023-03-14T04:32:17;5.55;;;1.42;;
69854;SDS011;57146;48.140;16.304;2023-03-14T04:34:48;4.60;;;1.30;;
69854;SDS011;57146;48.140;16.304;2023-03-14T04:37:15;6.27;;;1.33;;
69854;SDS011;57146;48.140;16.304;2023-03-14T04:39:43;6.60;;;1.33;;
69854;SDS011;57146;48.140;16.304;2023-03-14T04:42:16;4.88;;;1.50;;
69854;SDS011;57146;48.140;16.304;2023-03-14T04:44:43;5.45;;;1.58;;
69854;SDS011;57146;48.140;16.304;2023-03-14T04:47:11;5.90;;;1.55;;
69854;SDS011;57146;48.140;16.304;2023-03-14T04:49:40;5.00;;;1.50;;
69854;SDS011;57146;48.140;16.304;2023-03-14T04:52:10;9.15;;;1.88;;
69854;SDS011;57146;48.140;16.304;2023-03-14T04:54:37;6.82;;;1.70;;
69854;SDS011;57146;48.140;16.304;2023-03-14T04:57:06;6.03;;;1.40;;
69854;SDS011;57146;48.140;16.304;2023-03-14T04:59:35;4.88;;;1.25;;
69854;SDS011;57146;48.140;16.304;2023-03-14T05:02:14;7.00;;;1.30;;
69854;SDS011;57146;48.140;16.304;2023-03-14T05:04:53;6.25;;;1.40;;
69854;SDS011;57146;48.140;16.304;2023-03-14T05:07:34;5.85;;;1.38;;
69854;SDS011;57146;48.140;16.304;2023-03-14T05:10:28;30.00;;;2.28;;
69854;SDS011;57146;48.140;16.304;2023-03-14T05:13:14;13.13;;;1.50;;
69854;SDS011;57146;48.140;16.304;2023-03-14T05:16:08;6.57;;;1.40;;
69854;SDS011;57146;48.140;16.304;2023-03-14T05:18:55;6.95;;;1.55;;
69854;SDS011;57146;48.140;16.304;2023-03-14T05:21:38;5.90;;;1.50;;
69854;SDS011;57146;48.140;16.304;2023-03-14T05:24:24;4.93;;;1.30;;
69854;SDS011;57146;48.140;16.304;2023-03-14T05:26:53;6.38;;;1.40;;
69854;SDS011;57146;48.140;16.304;2023-03-14T05:29:35;5.20;;;1.30;;
69854;SDS011;57146;48.140;16.304;2023-03-14T05:32:47;5.88;;;1.15;;
69854;SDS011;57146;48.140;16.304;2023-03-14T05:35:35;13.02;;;1.10;;
69854;SDS011;57146;48.140;16.304;2023-03-14T05:38:23;5.07;;;0.90;;
69854;SDS011;57146;48.140;16.304;2023-03-14T05:41:01;5.40;;;1.50;;
69854;SDS011;57146;48.140;16.304;2023-03-14T05:44:00;7.60;;;1.20;;
69854;SDS011;57146;48.140;16.304;2023-03-14T05:47:04;4.90;;;1.25;;
69854;SDS011;57146;48.140;16.304;2023-03-14T05:49:45;7.40;;;1.30;;
69854;SDS011;57146;48.140;16.304;2023-03-14T05:52:31;6.00;;;1.30;;
69854;SDS011;57146;48.140;16.304;2023-03-14T05:55:21;5.97;;;1.20;;
69854;SDS011;57146;48.140;16.304;2023-03-14T05:58:07;7.97;;;1.53;;
69854;SDS011;57146;48.140;16.304;2023-03-14T06:01:01;6.22;;;1.35;;
69854;SDS011;57146;48.140;16.304;2023-03-14T06:03:41;6.45;;;1.58;;
69854;SDS011;57146;48.140;16.304;2023-03-14T06:06:10;11.07;;;1.90;;
69854;SDS011;57146;48.140;16.304;2023-03-14T06:08:37;7.93;;;1.50;;
69854;SDS011;57146;48.140;16.304;2023-03-14T06:11:08;8.97;;;1.70;;
69854;SDS011;57146;48.140;16.304;2023-03-14T06:13:35;6.82;;;1.77;;
69854;SDS011;57146;48.140;16.304;2023-03-14T06:16:02;8.93;;;1.90;;
69854;SDS011;57146;48.140;16.304;2023-03-14T06:18:29;9.20;;;1.80;;
69854;SDS011;57146;48.140;16.304;2023-03-14T06:20:57;7.95;;;1.90;;
69854;SDS011;57146;48.140;16.304;2023-03-14T06:23:26;11.07;;;2.40;;
69854;SDS011;57146;48.140;16.304;2023-03-14T06:25:55;12.05;;;2.25;;
69854;SDS011;57146;48.140;16.304;2023-03-14T06:28:25;8.35;;;2.08;;
69854;SDS011;57146;48.140;16.304;2023-03-14T06:30:55;8.52;;;2.05;;
69854;SDS011;57146;48.140;16.304;2023-03-14T06:33:24;8.60;;;2.13;;
69854;SDS011;57146;48.140;16.304;2023-03-14T06:35:51;10.47;;;2.00;;
69854;SDS011;57146;48.140;16.304;2023-03-14T06:38:21;8.23;;;1.80;;
69854;SDS011;57146;48.140;16.304;2023-03-14T06:40:53;9.30;;;1.73;;
69854;SDS011;57146;48.140;16.304;2023-03-14T06:43:46;9.05;;;1.92;;
69854;SDS011;57146;48.140;16.304;2023-03-14T06:46:15;8.13;;;2.20;;
69854;SDS011;57146;48.140;16.304;2023-03-14T06:48:42;7.67;;;1.97;;
69854;SDS011;57146;48.140;16.304;2023-03-14T06:51:13;9.10;;;1.70;;
69854;SDS011;57146;48.140;16.304;2023-03-14T06:53:40;7.05;;;1.70;;
69854;SDS011;57146;48.140;16.304;2023-03-14T06:56:08;10.52;;;2.10;;
69854;SDS011;57146;48.140;16.304;2023-03-14T06:58:41;10.10;;;1.92;;
69854;SDS011;57146;48.140;16.304;2023-03-14T07:01:31;7.60;;;1.60;;
69854;SDS011;57146;48.140;16.304;2023-03-14T07:04:04;5.85;;;1.70;;
69854;SDS011;57146;48.140;16.304;2023-03-14T07:06:33;7.88;;;1.70;;
69854;SDS011;57146;48.140;16.304;2023-03-14T07:09:25;10.65;;;1.92;;
69854;SDS011;57146;48.140;16.304;2023-03-14T07:11:57;5.93;;;1.52;;
69854;SDS011;57146;48.140;16.304;2023-03-14T07:14:27;9.57;;;2.07;;
69854;SDS011;57146;48.140;16.304;2023-03-14T07:16:54;9.57;;;1.60;;
69854;SDS011;57146;48.140;16.304;2023-03-14T07:19:21;9.60;;;1.98;;
69854;SDS011;57146;48.140;16.304;2023-03-14T07:21:48;10.25;;;1.98;;
69854;SDS011;57146;48.140;16.304;2023-03-14T07:24:22;8.50;;;2.17;;
69854;SDS011;57146;48.140;16.304;2023-03-14T07:26:50;12.33;;;2.50;;
69854;SDS011;57146;48.140;16.304;2023-03-14T07:29:17;9.95;;;1.90;;
69854;SDS011;57146;48.140;16.304;2023-03-14T07:31:44;9.80;;;2.10;;
69854;SDS011;57146;48.140;16.304;2023-03-14T07:34:14;10.60;;;2.42;;
69854;SDS011;57146;48.140;16.304;2023-03-14T07:36:44;12.13;;;2.13;;
69854;SDS011;57146;48.140;16.304;2023-03-14T07:39:11;13.20;;;2.07;;
69854;SDS011;57146;48.140;16.304;2023-03-14T07:42:14;11.65;;;1.73;;
69854;SDS011;57146;48.140;16.304;2023-03-14T07:44:54;8.43;;;0.85;;
69854;SDS011;57146;48.140;16.304;2023-03-14T07:47:21;7.13;;;0.60;;
69854;SDS011;57146;48.140;16.304;2023-03-14T07:49:48;5.70;;;0.60;;
69854;SDS011;57146;48.140;16.304;2023-03-14T07:52:15;5.60;;;0.50;;
69854;SDS011;57146;48.140;16.304;2023-03-14T07:54:41;6.85;;;0.00;;
69854;SDS011;57146;48.140;16.304;2023-03-14T07:57:09;2.53;;;0.10;;
69854;SDS011;57146;48.140;16.304;2023-03-14T07:59:35;3.35;;;0.10;;
69854;SDS011;57146;48.140;16.304;2023-03-14T08:02:03;3.85;;;0.10;;
69854;SDS011;57146;48.140;16.304;2023-03-14T08:04:30;12.13;;;0.10;;
69854;SDS011;57146;48.140;16.304;2023-03-14T08:06:57;3.97;;;0.10;;
69854;SDS011;57146;48.140;16.304;2023-03-14T08:09:24;6.80;;;0.10;;
69854;SDS011;57146;48.140;16.304;2023-03-14T08:11:51;7.80;;;0.20;;
69854;SDS011;57146;48.140;16.304;2023-03-14T08:14:18;4.80;;;0.00;;
69854;SDS011;57146;48.140;16.304;2023-03-14T08:16:50;2.67;;;0.00;;
69854;SDS011;57146;48.140;16.304;2023-03-14T08:19:18;1.80;;;0.00;;
69854;SDS011;57146;48.140;16.304;2023-03-14T08:21:45;2.13;;;0.00;;
69854;SDS011;57146;48.140;16.304;2023-03-14T08:24:12;18.33;;;0.30;;
69854;SDS011;57146;48.140;16.304;2023-03-14T08:26:39;19.30;;;0.22;;
69854;SDS011;57146;48.140;16.304;2023-03-14T08:29:06;11.80;;;0.63;;
69854;SDS011;57146;48.140;16.304;2023-03-14T08:31:34;10.30;;;2.13;;
69854;SDS011;57146;48.140;16.304;2023-03-14T08:34:05;4.53;;;0.20;;
69854;SDS011;57146;48.140;16.304;2023-03-14T08:36:32;5.05;;;0.30;;
69854;SDS011;57146;48.140;16.304;2023-03-14T08:39:00;3.10;;;0.10;;
69854;SDS011;57146;48.140;16.304;2023-03-14T08:41:27;2.33;;;0.00;;
69854;SDS011;57146;48.140;16.304;2023-03-14T08:43:54;1.48;;;0.00;;
69854;SDS011;57146;48.140;16.304;2023-03-14T08:46:22;3.30;;;0.00;;
69854;SDS011;57146;48.140;16.304;2023-03-14T08:48:49;1.60;;;0.00;;
69854;SDS011;57146;48.140;16.304;2023-03-14T08:51:16;2.72;;;0.00;;
69854;SDS011;57146;48.140;16.304;2023-03-14T08:53:43;8.03;;;0.00;;
69854;SDS011;57146;48.140;16.304;2023-03-14T08:56:10;13.93;;;0.05;;
69854;SDS011;57146;48.140;16.304;2023-03-14T08:58:37;6.32;;;0.10;;
69854;SDS011;57146;48.140;16.304;2023-03-14T09:01:07;11.48;;;0.08;;
69854;SDS011;57146;48.140;16.304;2023-03-14T09:03:36;3.97;;;0.10;;
69854;SDS011;57146;48.140;16.304;2023-03-14T09:06:05;4.30;;;0.10;;
69854;SDS011;57146;48.140;16.304;2023-03-14T09:08:34;4.82;;;0.10;;
69854;SDS011;57146;48.140;16.304;2023-03-14T09:11:08;4.75;;;0.10;;
69854;SDS011;57146;48.140;16.304;2023-03-14T09:13:36;3.05;;;0.10;;
69854;SDS011;57146;48.140;16.304;2023-03-14T09:16:04;3.03;;;0.00;;
69854;SDS011;57146;48.140;16.304;2023-03-14T09:18:37;4.00;;;0.20;;
69854;SDS011;57146;48.140;16.304;2023-03-14T09:21:04;0.80;;;0.00;;
69854;SDS011;57146;48.140;16.304;2023-03-14T09:23:31;1.05;;;0.00;;
69854;SDS011;57146;48.140;16.304;2023-03-14T09:25:58;3.75;;;0.00;;
69854;SDS011;57146;48.140;16.304;2023-03-14T09:28:26;2.42;;;0.00;;
69854;SDS011;57146;48.140;16.304;2023-03-14T09:30:53;1.70;;;0.00;;
69854;SDS011;57146;48.140;16.304;2023-03-14T09:33:21;2.03;;;0.00;;
69854;SDS011;57146;48.140;16.304;2023-03-14T09:35:52;2.80;;;0.00;;
69854;SDS011;57146;48.140;16.304;2023-03-14T09:38:19;3.22;;;0.00;;
69854;SDS011;57146;48.140;16.304;2023-03-14T09:40:46;3.40;;;0.03;;
69854;SDS011;57146;48.140;16.304;2023-03-14T09:43:13;3.17;;;0.00;;
69854;SDS011;57146;48.140;16.304;2023-03-14T09:45:41;11.43;;;0.45;;
69854;SDS011;57146;48.140;16.304;2023-03-14T09:48:13;10.70;;;0.30;;
69854;SDS011;57146;48.140;16.304;2023-03-14T09:50:51;32.58;;;1.90;;
69854;SDS011;57146;48.140;16.304;2023-03-14T09:53:22;23.90;;;1.20;;
69854;SDS011;57146;48.140;16.304;2023-03-14T09:55:57;21.63;;;1.23;;
69854;SDS011;57146;48.140;16.304;2023-03-14T09:58:24;8.40;;;0.50;;
69854;SDS011;57146;48.140;16.304;2023-03-14T10:00:53;8.63;;;0.47;;
69854;SDS011;57146;48.140;16.304;2023-03-14T10:03:33;11.18;;;0.63;;
69854;SDS011;57146;48.140;16.304;2023-03-14T10:06:01;6.05;;;0.60;;
69854;SDS011;57146;48.140;16.304;2023-03-14T10:08:30;8.37;;;0.77;;
69854;SDS011;57146;48.140;16.304;2023-03-14T10:10:57;8.23;;;0.63;;
69854;SDS011;57146;48.140;16.304;2023-03-14T10:13:25;7.65;;;0.80;;
69854;SDS011;57146;48.140;16.304;2023-03-14T10:15:54;13.80;;;1.00;;
69854;SDS011;57146;48.140;16.304;2023-03-14T10:18:30;10.73;;;0.50;;
69854;SDS011;57146;48.140;16.304;2023-03-14T10:21:28;5.97;;;0.10;;
69854;SDS011;57146;48.140;16.304;2023-03-14T10:24:31;8.50;;;0.20;;
69854;SDS011;57146;48.140;16.304;2023-03-14T10:26:55;2.47;;;0.00;;
69854;SDS011;57146;48.140;16.304;2023-03-14T10:29:54;0.90;;;0.00;;
69854;SDS011;57146;48.140;16.304;2023-03-14T10:32:35;0.63;;;0.00;;
69854;SDS011;57146;48.140;16.304;2023-03-14T10:35:06;1.17;;;0.00;;
69854;SDS011;57146;48.140;16.304;2023-03-14T10:37:35;2.40;;;0.00;;
69854;SDS011;57146;48.140;16.304;2023-03-14T10:40:04;0.60;;;0.00;;
69854;SDS011;57146;48.140;16.304;2023-03-14T10:42:57;15.50;;;0.13;;
69854;SDS011;57146;48.140;16.304;2023-03-14T10:51:06;8.07;;;0.30;;
69854;SDS011;57146;48.140;16.304;2023-03-14T10:53:38;2.80;;;0.00;;
69854;SDS011;57146;48.140;16.304;2023-03-14T10:56:13;1.10;;;0.00;;
69854;SDS011;57146;48.140;16.304;2023-03-14T10:58:42;3.28;;;0.00;;
69854;SDS011;57146;48.140;16.304;2023-03-14T11:07:01;7.97;;;0.00;;
69854;SDS011;57146;48.140;16.304;2023-03-14T11:12:26;61.90;;;3.78;;
69854;SDS011;57146;48.140;16.304;2023-03-14T11:20:53;7.18;;;0.00;;
69854;SDS011;57146;48.140;16.304;2023-03-14T11:23:50;1.20;;;0.00;;
69854;SDS011;57146;48.140;16.304;2023-03-14T11:27:05;0.90;;;0.00;;
69854;SDS011;57146;48.140;16.304;2023-03-14T11:29:42;2.70;;;0.00;;
69854;SDS011;57146;48.140;16.304;2023-03-14T11:35:39;3.03;;;0.03;;
69854;SDS011;57146;48.140;16.304;2023-03-14T11:38:28;6.78;;;0.00;;
69854;SDS011;57146;48.140;16.304;2023-03-14T11:40:58;75.47;;;2.15;;
69854;SDS011;57146;48.140;16.304;2023-03-14T11:43:30;18.30;;;0.00;;
69854;SDS011;57146;48.140;16.304;2023-03-14T11:48:43;4.93;;;0.00;;
69854;SDS011;57146;48.140;16.304;2023-03-14T11:51:35;1.10;;;0.00;;
69854;SDS011;57146;48.140;16.304;2023-03-14T11:56:57;10.60;;;0.17;;
69854;SDS011;57146;48.140;16.304;2023-03-14T11:59:41;3.40;;;0.00;;
69854;SDS011;57146;48.140;16.304;2023-03-14T12:07:56;6.38;;;0.45;;
69854;SDS011;57146;48.140;16.304;2023-03-14T12:13:48;34.97;;;1.25;;
69854;SDS011;57146;48.140;16.304;2023-03-14T12:18:50;23.33;;;0.40;;
69854;SDS011;57146;48.140;16.304;2023-03-14T12:21:18;4.18;;;0.00;;
69854;SDS011;57146;48.140;16.304;2023-03-14T12:23:50;35.10;;;0.63;;
69854;SDS011;57146;48.140;16.304;2023-03-14T12:26:19;4.85;;;0.00;;
69854;SDS011;57146;48.140;16.304;2023-03-14T12:28:49;7.97;;;0.00;;
69854;SDS011;57146;48.140;16.304;2023-03-14T12:31:47;5.85;;;0.00;;
69854;SDS011;57146;48.140;16.304;2023-03-14T12:42:09;0.57;;;0.00;;
69854;SDS011;57146;48.140;16.304;2023-03-14T12:44:42;4.38;;;0.00;;
69854;SDS011;57146;48.140;16.304;2023-03-14T12:49:48;36.30;;;1.17;;
69854;SDS011;57146;48.140;16.304;2023-03-14T12:52:49;4.00;;;0.00;;
69854;SDS011;57146;48.140;16.304;2023-03-14T12:55:49;9.10;;;0.10;;
69854;SDS011;57146;48.140;16.304;2023-03-14T13:01:00;26.00;;;0.30;;
69854;SDS011;57146;48.140;16.304;2023-03-14T13:03:37;6.67;;;0.00;;
69854;SDS011;57146;48.140;16.304;2023-03-14T13:06:10;5.10;;;0.00;;
69854;SDS011;57146;48.140;16.304;2023-03-14T13:08:39;39.05;;;0.75;;
69854;SDS011;57146;48.140;16.304;2023-03-14T13:11:29;111.85;;;4.30;;
69854;SDS011;57146;48.140;16.304;2023-03-14T13:13:56;4.20;;;0.10;;
69854;SDS011;57146;48.140;16.304;2023-03-14T13:16:24;4.07;;;0.00;;
69854;SDS011;57146;48.140;16.304;2023-03-14T13:19:27;9.45;;;0.00;;
69854;SDS011;57146;48.140;16.304;2023-03-14T13:21:51;6.05;;;0.03;;
69854;SDS011;57146;48.140;16.304;2023-03-14T13:24:27;4.72;;;0.00;;
69854;SDS011;57146;48.140;16.304;2023-03-14T13:26:55;1.50;;;0.00;;
69854;SDS011;57146;48.140;16.304;2023-03-14T13:29:24;4.40;;;0.00;;
69854;SDS011;57146;48.140;16.304;2023-03-14T13:31:55;0.93;;;0.00;;
69854;SDS011;57146;48.140;16.304;2023-03-14T13:34:28;7.22;;;0.00;;
69854;SDS011;57146;48.140;16.304;2023-03-14T13:36:56;5.45;;;0.00;;
69854;SDS011;57146;48.140;16.304;2023-03-14T13:39:28;17.17;;;0.10;;
69854;SDS011;57146;48.140;16.304;2023-03-14T13:42:00;4.60;;;0.00;;
69854;SDS011;57146;48.140;16.304;2023-03-14T13:44:35;3.30;;;0.00;;
69854;SDS011;57146;48.140;16.304;2023-03-14T13:47:05;7.68;;;0.17;;
69854;SDS011;57146;48.140;16.304;2023-03-14T13:49:37;9.05;;;0.10;;
69854;SDS011;57146;48.140;16.304;2023-03-14T13:55:14;13.07;;;0.10;;
69854;SDS011;57146;48.140;16.304;2023-03-14T13:57:46;9.13;;;0.20;;
69854;SDS011;57146;48.140;16.304;2023-03-14T14:00:21;2.33;;;0.10;;
69854;SDS011;57146;48.140;16.304;2023-03-14T14:02:49;8.63;;;0.05;;
69854;SDS011;57146;48.140;16.304;2023-03-14T14:05:16;3.33;;;0.00;;
69854;SDS011;57146;48.140;16.304;2023-03-14T14:07:43;2.10;;;0.00;;
69854;SDS011;57146;48.140;16.304;2023-03-14T14:10:11;1.25;;;0.00;;
69854;SDS011;57146;48.140;16.304;2023-03-14T14:12:44;2.22;;;0.00;;
69854;SDS011;57146;48.140;16.304;2023-03-14T14:15:25;40.70;;;1.27;;
69854;SDS011;57146;48.140;16.304;2023-03-14T14:17:54;4.97;;;0.00;;
69854;SDS011;57146;48.140;16.304;2023-03-14T14:23:07;3.60;;;0.08;;
69854;SDS011;57146;48.140;16.304;2023-03-14T14:25:38;1.50;;;0.00;;
69854;SDS011;57146;48.140;16.304;2023-03-14T14:28:23;1.73;;;0.00;;
69854;SDS011;57146;48.140;16.304;2023-03-14T14:36:15;3.65;;;0.00;;
69854;SDS011;57146;48.140;16.304;2023-03-14T14:38:49;5.28;;;0.00;;
69854;SDS011;57146;48.140;16.304;2023-03-14T14:41:17;1.50;;;0.00;;
69854;SDS011;57146;48.140;16.304;2023-03-14T14:43:45;2.63;;;0.00;;
69854;SDS011;57146;48.140;16.304;2023-03-14T14:46:15;2.13;;;0.00;;
69854;SDS011;57146;48.140;16.304;2023-03-14T14:48:44;1.63;;;0.00;;
69854;SDS011;57146;48.140;16.304;2023-03-14T14:51:11;0.80;;;0.00;;
69854;SDS011;57146;48.140;16.304;2023-03-14T14:53:43;2.03;;;0.00;;
69854;SDS011;57146;48.140;16.304;2023-03-14T14:56:17;1.63;;;0.00;;
69854;SDS011;57146;48.140;16.304;2023-03-14T14:58:59;1.70;;;0.00;;
69854;SDS011;57146;48.140;16.304;2023-03-14T15:01:34;2.10;;;0.10;;
69854;SDS011;57146;48.140;16.304;2023-03-14T15:04:04;3.55;;;0.00;;
69854;SDS011;57146;48.140;16.304;2023-03-14T15:06:37;1.15;;;0.00;;
69854;SDS011;57146;48.140;16.304;2023-03-14T15:09:04;3.70;;;0.10;;
69854;SDS011;57146;48.140;16.304;2023-03-14T15:11:31;2.23;;;0.10;;
69854;SDS011;57146;48.140;16.304;2023-03-14T15:13:59;4.00;;;0.20;;
69854;SDS011;57146;48.140;16.304;2023-03-14T15:16:28;4.18;;;0.30;;
69854;SDS011;57146;48.140;16.304;2023-03-14T15:18:57;4.15;;;0.10;;
69854;SDS011;57146;48.140;16.304;2023-03-14T15:22:07;5.82;;;0.00;;
69854;SDS011;57146;48.140;16.304;2023-03-14T15:24:40;5.33;;;0.10;;
69854;SDS011;57146;48.140;16.304;2023-03-14T15:27:10;3.15;;;0.05;;
69854;SDS011;57146;48.140;16.304;2023-03-14T15:30:05;2.10;;;0.00;;
69854;SDS011;57146;48.140;16.304;2023-03-14T15:32:33;1.02;;;0.00;;
69854;SDS011;57146;48.140;16.304;2023-03-14T15:35:00;1.73;;;0.00;;
69854;SDS011;57146;48.140;16.304;2023-03-14T15:37:27;1.60;;;0.00;;
69854;SDS011;57146;48.140;16.304;2023-03-14T15:39:54;0.80;;;0.00;;
69854;SDS011;57146;48.140;16.304;2023-03-14T15:42:21;1.73;;;0.00;;
69854;SDS011;57146;48.140;16.304;2023-03-14T15:44:49;2.47;;;0.00;;
69854;SDS011;57146;48.140;16.304;2023-03-14T15:47:18;3.47;;;0.00;;
69854;SDS011;57146;48.140;16.304;2023-03-14T15:49:45;2.90;;;0.10;;
69854;SDS011;57146;48.140;16.304;2023-03-14T15:52:12;1.90;;;0.00;;
69854;SDS011;57146;48.140;16.304;2023-03-14T15:54:41;2.30;;;0.00;;
69854;SDS011;57146;48.140;16.304;2023-03-14T15:57:10;2.30;;;0.10;;
69854;SDS011;57146;48.140;16.304;2023-03-14T15:59:39;2.78;;;0.43;;
69854;SDS011;57146;48.140;16.304;2023-03-14T16:02:05;2.63;;;0.10;;
69854;SDS011;57146;48.140;16.304;2023-03-14T16:04:56;1.88;;;0.00;;
69854;SDS011;57146;48.140;16.304;2023-03-14T16:07:31;1.90;;;0.17;;
69854;SDS011;57146;48.140;16.304;2023-03-14T16:09:58;3.15;;;0.00;;
69854;SDS011;57146;48.140;16.304;2023-03-14T16:12:26;1.02;;;0.00;;
69854;SDS011;57146;48.140;16.304;2023-03-14T16:14:53;1.73;;;0.00;;
69854;SDS011;57146;48.140;16.304;2023-03-14T16:17:20;1.63;;;0.00;;
69854;SDS011;57146;48.140;16.304;2023-03-14T16:19:49;1.80;;;0.00;;